sensor_id;sensor_type;location;lat;lon;timestamp;P1;durP1;ratioP1;P2;durP2;ratioP2
57111;SDS011;42992;49.084;19.300;2022-12-26T00:01:59;26.40;;;12.88;;
57111;SDS011;42992;49.084;19.300;2022-12-26T00:04:33;24.38;;;12.60;;
57111;SDS011;42992;49.084;19.300;2022-12-26T00:10:11;17.95;;;9.55;;
57111;SDS011;42992;49.084;19.300;2022-12-26T00:16:13;19.35;;;10.60;;
57111;SDS011;42992;49.084;19.300;2022-12-26T00:22:08;20.00;;;11.07;;
57111;SDS011;42992;49.084;19.300;2022-12-26T00:30:23;14.93;;;8.07;;
57111;SDS011;42992;49.084;19.300;2022-12-26T00:35:59;15.57;;;5.88;;
57111;SDS011;42992;49.084;19.300;2022-12-26T00:38:48;11.18;;;5.72;;
57111;SDS011;42992;49.084;19.300;2022-12-26T00:41:18;10.73;;;6.10;;
57111;SDS011;42992;49.084;19.300;2022-12-26T00:47:14;11.13;;;5.53;;
57111;SDS011;42992;49.084;19.300;2022-12-26T00:49:49;14.10;;;5.65;;
57111;SDS011;42992;49.084;19.300;2022-12-26T00:55:20;10.00;;;4.82;;
57111;SDS011;42992;49.084;19.300;2022-12-26T01:01:09;10.38;;;5.25;;
57111;SDS011;42992;49.084;19.300;2022-12-26T01:03:57;8.80;;;5.35;;
57111;SDS011;42992;49.084;19.300;2022-12-26T01:10:04;10.35;;;4.72;;
57111;SDS011;42992;49.084;19.300;2022-12-26T01:12:31;8.35;;;4.95;;
57111;SDS011;42992;49.084;19.300;2022-12-26T01:18:27;9.77;;;4.90;;
57111;SDS011;42992;49.084;19.300;2022-12-26T01:21:15;12.05;;;5.43;;
57111;SDS011;42992;49.084;19.300;2022-12-26T01:30:26;11.07;;;5.28;;
57111;SDS011;42992;49.084;19.300;2022-12-26T01:33:17;9.60;;;5.70;;
57111;SDS011;42992;49.084;19.300;2022-12-26T01:38:36;10.18;;;5.85;;
57111;SDS011;42992;49.084;19.300;2022-12-26T01:41:20;11.65;;;5.38;;
57111;SDS011;42992;49.084;19.300;2022-12-26T01:54:00;8.43;;;5.10;;
57111;SDS011;42992;49.084;19.300;2022-12-26T01:56:30;12.18;;;5.72;;
57111;SDS011;42992;49.084;19.300;2022-12-26T01:59:54;10.95;;;5.75;;
57111;SDS011;42992;49.084;19.300;2022-12-26T02:02:33;11.32;;;5.53;;
57111;SDS011;42992;49.084;19.300;2022-12-26T02:08:12;10.80;;;5.93;;
57111;SDS011;42992;49.084;19.300;2022-12-26T02:14:10;13.02;;;5.93;;
57111;SDS011;42992;49.084;19.300;2022-12-26T02:16:54;9.68;;;6.05;;
57111;SDS011;42992;49.084;19.300;2022-12-26T02:55:19;12.25;;;6.70;;
57111;SDS011;42992;49.084;19.300;2022-12-26T03:00:41;14.47;;;7.00;;
57111;SDS011;42992;49.084;19.300;2022-12-26T03:03:53;13.35;;;6.78;;
57111;SDS011;42992;49.084;19.300;2022-12-26T03:12:51;11.68;;;6.78;;
57111;SDS011;42992;49.084;19.300;2022-12-26T03:18:13;15.95;;;7.75;;
57111;SDS011;42992;49.084;19.300;2022-12-26T03:20:40;11.95;;;7.10;;
57111;SDS011;42992;49.084;19.300;2022-12-26T03:23:06;14.18;;;8.23;;
57111;SDS011;42992;49.084;19.300;2022-12-26T03:25:37;14.80;;;7.72;;
57111;SDS011;42992;49.084;19.300;2022-12-26T03:28:21;20.83;;;8.27;;
57111;SDS011;42992;49.084;19.300;2022-12-26T03:30:47;14.30;;;8.20;;
57111;SDS011;42992;49.084;19.300;2022-12-26T03:33:19;15.45;;;8.35;;
57111;SDS011;42992;49.084;19.300;2022-12-26T03:36:06;14.25;;;7.85;;
57111;SDS011;42992;49.084;19.300;2022-12-26T03:41:19;15.05;;;7.80;;
57111;SDS011;42992;49.084;19.300;2022-12-26T03:44:24;12.05;;;7.22;;
57111;SDS011;42992;49.084;19.300;2022-12-26T03:47:17;13.48;;;7.50;;
57111;SDS011;42992;49.084;19.300;2022-12-26T03:50:05;13.98;;;8.13;;
57111;SDS011;42992;49.084;19.300;2022-12-26T03:58:43;14.27;;;7.95;;
57111;SDS011;42992;49.084;19.300;2022-12-26T04:01:28;13.05;;;8.30;;
57111;SDS011;42992;49.084;19.300;2022-12-26T04:04:14;14.70;;;9.18;;
57111;SDS011;42992;49.084;19.300;2022-12-26T04:07:13;14.40;;;9.45;;
57111;SDS011;42992;49.084;19.300;2022-12-26T04:10:02;14.70;;;8.82;;
57111;SDS011;42992;49.084;19.300;2022-12-26T04:12:47;16.38;;;9.20;;
57111;SDS011;42992;49.084;19.300;2022-12-26T04:15:44;15.83;;;8.50;;
57111;SDS011;42992;49.084;19.300;2022-12-26T04:21:26;14.15;;;8.68;;
57111;SDS011;42992;49.084;19.300;2022-12-26T04:30:21;13.13;;;8.57;;
57111;SDS011;42992;49.084;19.300;2022-12-26T04:33:10;15.10;;;8.13;;
57111;SDS011;42992;49.084;19.300;2022-12-26T04:35:58;13.95;;;8.35;;
57111;SDS011;42992;49.084;19.300;2022-12-26T04:38:48;16.95;;;9.27;;
57111;SDS011;42992;49.084;19.300;2022-12-26T04:41:36;15.27;;;8.68;;
57111;SDS011;42992;49.084;19.300;2022-12-26T04:44:21;16.70;;;9.30;;
57111;SDS011;42992;49.084;19.300;2022-12-26T04:46:52;17.48;;;8.45;;
57111;SDS011;42992;49.084;19.300;2022-12-26T04:49:23;17.63;;;8.57;;
57111;SDS011;42992;49.084;19.300;2022-12-26T04:52:08;15.88;;;8.30;;
57111;SDS011;42992;49.084;19.300;2022-12-26T04:54:33;12.15;;;7.68;;
57111;SDS011;42992;49.084;19.300;2022-12-26T04:57:01;16.63;;;8.90;;
57111;SDS011;42992;49.084;19.300;2022-12-26T04:59:27;15.00;;;8.75;;
57111;SDS011;42992;49.084;19.300;2022-12-26T05:01:52;13.82;;;8.57;;
57111;SDS011;42992;49.084;19.300;2022-12-26T05:04:37;18.02;;;9.70;;
57111;SDS011;42992;49.084;19.300;2022-12-26T05:07:24;17.25;;;9.18;;
57111;SDS011;42992;49.084;19.300;2022-12-26T05:10:12;16.25;;;9.35;;
57111;SDS011;42992;49.084;19.300;2022-12-26T05:12:47;14.25;;;8.90;;
57111;SDS011;42992;49.084;19.300;2022-12-26T05:15:13;15.25;;;9.20;;
57111;SDS011;42992;49.084;19.300;2022-12-26T05:17:46;15.18;;;9.82;;
57111;SDS011;42992;49.084;19.300;2022-12-26T05:20:35;18.00;;;9.35;;
57111;SDS011;42992;49.084;19.300;2022-12-26T05:23:24;15.25;;;9.23;;
57111;SDS011;42992;49.084;19.300;2022-12-26T05:26:10;14.85;;;9.10;;
57111;SDS011;42992;49.084;19.300;2022-12-26T05:28:57;16.52;;;9.02;;
57111;SDS011;42992;49.084;19.300;2022-12-26T05:31:25;17.58;;;9.60;;
57111;SDS011;42992;49.084;19.300;2022-12-26T05:33:51;12.05;;;8.15;;
57111;SDS011;42992;49.084;19.300;2022-12-26T05:36:48;15.13;;;7.95;;
57111;SDS011;42992;49.084;19.300;2022-12-26T05:39:16;15.80;;;7.28;;
57111;SDS011;42992;49.084;19.300;2022-12-26T05:41:43;13.25;;;7.60;;
57111;SDS011;42992;49.084;19.300;2022-12-26T05:44:10;11.93;;;6.50;;
57111;SDS011;42992;49.084;19.300;2022-12-26T05:46:58;13.23;;;7.45;;
57111;SDS011;42992;49.084;19.300;2022-12-26T05:49:23;11.98;;;7.35;;
57111;SDS011;42992;49.084;19.300;2022-12-26T05:51:49;12.40;;;6.95;;
57111;SDS011;42992;49.084;19.300;2022-12-26T05:54:16;12.18;;;7.00;;
57111;SDS011;42992;49.084;19.300;2022-12-26T05:56:43;11.38;;;6.70;;
57111;SDS011;42992;49.084;19.300;2022-12-26T05:59:08;12.32;;;7.30;;
57111;SDS011;42992;49.084;19.300;2022-12-26T06:01:33;12.10;;;7.05;;
57111;SDS011;42992;49.084;19.300;2022-12-26T06:04:02;10.95;;;6.90;;
57111;SDS011;42992;49.084;19.300;2022-12-26T06:06:27;12.30;;;7.03;;
57111;SDS011;42992;49.084;19.300;2022-12-26T06:09:05;12.52;;;6.55;;
57111;SDS011;42992;49.084;19.300;2022-12-26T06:11:30;14.13;;;7.18;;
57111;SDS011;42992;49.084;19.300;2022-12-26T06:13:57;12.90;;;6.93;;
57111;SDS011;42992;49.084;19.300;2022-12-26T06:16:22;11.93;;;7.00;;
57111;SDS011;42992;49.084;19.300;2022-12-26T06:18:52;11.60;;;7.28;;
57111;SDS011;42992;49.084;19.300;2022-12-26T06:21:19;11.73;;;7.15;;
57111;SDS011;42992;49.084;19.300;2022-12-26T06:23:46;12.32;;;7.70;;
57111;SDS011;42992;49.084;19.300;2022-12-26T06:26:14;13.30;;;7.25;;
57111;SDS011;42992;49.084;19.300;2022-12-26T06:28:41;12.65;;;7.28;;
57111;SDS011;42992;49.084;19.300;2022-12-26T06:31:10;12.18;;;6.88;;
57111;SDS011;42992;49.084;19.300;2022-12-26T06:33:39;11.80;;;7.40;;
57111;SDS011;42992;49.084;19.300;2022-12-26T06:36:06;11.68;;;7.28;;
57111;SDS011;42992;49.084;19.300;2022-12-26T06:38:32;11.50;;;7.68;;
57111;SDS011;42992;49.084;19.300;2022-12-26T06:40:59;14.68;;;7.22;;
57111;SDS011;42992;49.084;19.300;2022-12-26T06:43:26;13.05;;;7.47;;
57111;SDS011;42992;49.084;19.300;2022-12-26T06:45:56;11.13;;;7.68;;
57111;SDS011;42992;49.084;19.300;2022-12-26T06:48:22;15.60;;;9.63;;
57111;SDS011;42992;49.084;19.300;2022-12-26T06:50:48;13.98;;;9.02;;
57111;SDS011;42992;49.084;19.300;2022-12-26T06:53:13;16.00;;;9.57;;
57111;SDS011;42992;49.084;19.300;2022-12-26T06:55:40;21.23;;;11.75;;
57111;SDS011;42992;49.084;19.300;2022-12-26T06:58:07;16.73;;;9.68;;
57111;SDS011;42992;49.084;19.300;2022-12-26T07:00:35;13.18;;;8.77;;
57111;SDS011;42992;49.084;19.300;2022-12-26T07:05:51;10.52;;;6.97;;
57111;SDS011;42992;49.084;19.300;2022-12-26T07:08:19;13.27;;;7.38;;
57111;SDS011;42992;49.084;19.300;2022-12-26T07:10:49;11.55;;;7.00;;
57111;SDS011;42992;49.084;19.300;2022-12-26T07:13:18;11.80;;;7.40;;
57111;SDS011;42992;49.084;19.300;2022-12-26T07:15:43;10.98;;;7.13;;
57111;SDS011;42992;49.084;19.300;2022-12-26T07:18:12;11.30;;;6.20;;
57111;SDS011;42992;49.084;19.300;2022-12-26T07:20:37;10.85;;;6.40;;
57111;SDS011;42992;49.084;19.300;2022-12-26T07:23:32;11.02;;;7.53;;
57111;SDS011;42992;49.084;19.300;2022-12-26T07:26:02;11.80;;;7.30;;
57111;SDS011;42992;49.084;19.300;2022-12-26T07:28:32;10.50;;;6.43;;
57111;SDS011;42992;49.084;19.300;2022-12-26T07:31:02;12.75;;;7.90;;
57111;SDS011;42992;49.084;19.300;2022-12-26T07:33:27;15.70;;;8.98;;
57111;SDS011;42992;49.084;19.300;2022-12-26T07:35:59;11.40;;;7.65;;
57111;SDS011;42992;49.084;19.300;2022-12-26T07:39:03;15.07;;;9.05;;
57111;SDS011;42992;49.084;19.300;2022-12-26T07:41:29;18.00;;;9.35;;
57111;SDS011;42992;49.084;19.300;2022-12-26T07:44:14;15.13;;;10.00;;
57111;SDS011;42992;49.084;19.300;2022-12-26T07:46:39;17.65;;;10.55;;
57111;SDS011;42992;49.084;19.300;2022-12-26T07:49:06;15.70;;;9.60;;
57111;SDS011;42992;49.084;19.300;2022-12-26T07:51:38;16.63;;;10.18;;
57111;SDS011;42992;49.084;19.300;2022-12-26T07:54:41;17.42;;;11.07;;
57111;SDS011;42992;49.084;19.300;2022-12-26T07:57:11;21.70;;;10.45;;
57111;SDS011;42992;49.084;19.300;2022-12-26T07:59:37;14.55;;;9.40;;
57111;SDS011;42992;49.084;19.300;2022-12-26T08:02:02;13.07;;;8.75;;
57111;SDS011;42992;49.084;19.300;2022-12-26T08:04:31;16.48;;;10.25;;
57111;SDS011;42992;49.084;19.300;2022-12-26T08:06:56;15.85;;;10.93;;
57111;SDS011;42992;49.084;19.300;2022-12-26T08:12:12;15.90;;;8.55;;
57111;SDS011;42992;49.084;19.300;2022-12-26T08:14:39;20.45;;;12.35;;
57111;SDS011;42992;49.084;19.300;2022-12-26T10:14:58;28.77;;;17.70;;
57111;SDS011;42992;49.084;19.300;2022-12-26T13:44:24;19.88;;;14.18;;
57111;SDS011;42992;49.084;19.300;2022-12-26T13:46:54;22.17;;;15.02;;
57111;SDS011;42992;49.084;19.300;2022-12-26T14:25:34;25.92;;;15.85;;
57111;SDS011;42992;49.084;19.300;2022-12-26T16:13:16;23.08;;;15.80;;
57111;SDS011;42992;49.084;19.300;2022-12-26T16:15:55;22.85;;;16.08;;
57111;SDS011;42992;49.084;19.300;2022-12-26T16:18:25;22.08;;;15.18;;
57111;SDS011;42992;49.084;19.300;2022-12-26T16:20:57;24.25;;;15.70;;
57111;SDS011;42992;49.084;19.300;2022-12-26T16:23:43;30.65;;;16.98;;
57111;SDS011;42992;49.084;19.300;2022-12-26T16:26:22;25.67;;;16.33;;
57111;SDS011;42992;49.084;19.300;2022-12-26T16:28:49;25.95;;;17.00;;
57111;SDS011;42992;49.084;19.300;2022-12-26T16:31:31;30.33;;;20.42;;
57111;SDS011;42992;49.084;19.300;2022-12-26T16:37:18;27.52;;;18.73;;
57111;SDS011;42992;49.084;19.300;2022-12-26T16:46:27;23.63;;;14.85;;
57111;SDS011;42992;49.084;19.300;2022-12-26T16:49:16;24.48;;;16.55;;
57111;SDS011;42992;49.084;19.300;2022-12-26T16:51:46;26.20;;;16.63;;
57111;SDS011;42992;49.084;19.300;2022-12-26T17:00:20;21.00;;;13.95;;
57111;SDS011;42992;49.084;19.300;2022-12-26T17:02:48;23.08;;;15.77;;
57111;SDS011;42992;49.084;19.300;2022-12-26T17:11:24;23.15;;;15.95;;
57111;SDS011;42992;49.084;19.300;2022-12-26T17:14:19;25.73;;;16.85;;
57111;SDS011;42992;49.084;19.300;2022-12-26T17:34:24;25.30;;;15.65;;
57111;SDS011;42992;49.084;19.300;2022-12-26T17:36:52;29.88;;;18.20;;
57111;SDS011;42992;49.084;19.300;2022-12-26T17:39:36;31.10;;;19.85;;
57111;SDS011;42992;49.084;19.300;2022-12-26T17:42:07;31.10;;;21.13;;
57111;SDS011;42992;49.084;19.300;2022-12-26T17:47:36;26.92;;;18.02;;
57111;SDS011;42992;49.084;19.300;2022-12-26T17:50:04;28.30;;;17.98;;
57111;SDS011;42992;49.084;19.300;2022-12-26T17:55:32;30.02;;;19.35;;
57111;SDS011;42992;49.084;19.300;2022-12-26T17:58:00;27.75;;;17.00;;
57111;SDS011;42992;49.084;19.300;2022-12-26T18:00:30;31.20;;;19.60;;
57111;SDS011;42992;49.084;19.300;2022-12-26T18:02:58;26.15;;;17.52;;
57111;SDS011;42992;49.084;19.300;2022-12-26T18:05:43;30.42;;;19.67;;
57111;SDS011;42992;49.084;19.300;2022-12-26T18:08:40;35.80;;;23.80;;
57111;SDS011;42992;49.084;19.300;2022-12-26T18:11:09;42.00;;;25.35;;
57111;SDS011;42992;49.084;19.300;2022-12-26T18:13:36;35.65;;;22.58;;
57111;SDS011;42992;49.084;19.300;2022-12-26T18:16:02;39.72;;;25.23;;
57111;SDS011;42992;49.084;19.300;2022-12-26T18:18:53;43.17;;;26.17;;
57111;SDS011;42992;49.084;19.300;2022-12-26T18:21:20;41.03;;;26.60;;
57111;SDS011;42992;49.084;19.300;2022-12-26T18:23:49;39.65;;;25.23;;
57111;SDS011;42992;49.084;19.300;2022-12-26T18:26:41;32.88;;;20.40;;
57111;SDS011;42992;49.084;19.300;2022-12-26T18:29:37;40.30;;;26.15;;
57111;SDS011;42992;49.084;19.300;2022-12-26T18:49:42;68.38;;;40.30;;
57111;SDS011;42992;49.084;19.300;2022-12-26T18:52:47;67.97;;;40.97;;
57111;SDS011;42992;49.084;19.300;2022-12-26T18:55:14;66.75;;;40.35;;
57111;SDS011;42992;49.084;19.300;2022-12-26T18:58:17;73.60;;;42.70;;
57111;SDS011;42992;49.084;19.300;2022-12-26T19:00:46;77.50;;;45.33;;
57111;SDS011;42992;49.084;19.300;2022-12-26T19:03:14;72.72;;;42.20;;
57111;SDS011;42992;49.084;19.300;2022-12-26T19:09:20;96.32;;;55.25;;
57111;SDS011;42992;49.084;19.300;2022-12-26T19:48:09;61.40;;;37.50;;
57111;SDS011;42992;49.084;19.300;2022-12-26T19:53:47;54.30;;;36.30;;
57111;SDS011;42992;49.084;19.300;2022-12-26T19:59:35;59.38;;;38.05;;
57111;SDS011;42992;49.084;19.300;2022-12-26T20:02:05;58.17;;;36.40;;
57111;SDS011;42992;49.084;19.300;2022-12-26T20:04:40;57.33;;;36.85;;
57111;SDS011;42992;49.084;19.300;2022-12-26T20:07:05;54.35;;;37.40;;
57111;SDS011;42992;49.084;19.300;2022-12-26T20:09:31;56.58;;;36.20;;
57111;SDS011;42992;49.084;19.300;2022-12-26T20:11:56;54.45;;;36.05;;
57111;SDS011;42992;49.084;19.300;2022-12-26T20:14:39;50.95;;;33.05;;
57111;SDS011;42992;49.084;19.300;2022-12-26T20:17:04;53.72;;;34.33;;
57111;SDS011;42992;49.084;19.300;2022-12-26T20:19:32;54.65;;;34.35;;
57111;SDS011;42992;49.084;19.300;2022-12-26T20:21:59;47.50;;;30.27;;
57111;SDS011;42992;49.084;19.300;2022-12-26T20:24:27;42.17;;;27.50;;
57111;SDS011;42992;49.084;19.300;2022-12-26T20:27:22;34.90;;;21.45;;
57111;SDS011;42992;49.084;19.300;2022-12-26T20:29:51;35.83;;;20.85;;
57111;SDS011;42992;49.084;19.300;2022-12-26T20:32:20;24.90;;;16.02;;
57111;SDS011;42992;49.084;19.300;2022-12-26T20:34:48;19.85;;;12.82;;
57111;SDS011;42992;49.084;19.300;2022-12-26T20:37:15;19.15;;;12.15;;
57111;SDS011;42992;49.084;19.300;2022-12-26T20:39:42;20.20;;;12.05;;
57111;SDS011;42992;49.084;19.300;2022-12-26T20:48:17;20.08;;;10.80;;
57111;SDS011;42992;49.084;19.300;2022-12-26T20:50:42;16.90;;;11.13;;
57111;SDS011;42992;49.084;19.300;2022-12-26T20:53:08;17.73;;;10.45;;
57111;SDS011;42992;49.084;19.300;2022-12-26T20:58:18;18.52;;;10.80;;
57111;SDS011;42992;49.084;19.300;2022-12-26T21:07:03;17.95;;;11.38;;
57111;SDS011;42992;49.084;19.300;2022-12-26T21:09:36;19.80;;;11.15;;
57111;SDS011;42992;49.084;19.300;2022-12-26T21:12:10;17.52;;;10.77;;
57111;SDS011;42992;49.084;19.300;2022-12-26T21:14:42;20.08;;;11.85;;
57111;SDS011;42992;49.084;19.300;2022-12-26T21:17:08;19.17;;;12.38;;
57111;SDS011;42992;49.084;19.300;2022-12-26T21:19:33;17.83;;;11.52;;
57111;SDS011;42992;49.084;19.300;2022-12-26T21:22:00;19.40;;;12.55;;
57111;SDS011;42992;49.084;19.300;2022-12-26T21:24:28;19.48;;;13.00;;
57111;SDS011;42992;49.084;19.300;2022-12-26T21:26:55;20.52;;;13.63;;
57111;SDS011;42992;49.084;19.300;2022-12-26T21:32:41;17.70;;;12.30;;
57111;SDS011;42992;49.084;19.300;2022-12-26T21:35:13;16.95;;;11.75;;
57111;SDS011;42992;49.084;19.300;2022-12-26T21:40:45;18.70;;;12.32;;
57111;SDS011;42992;49.084;19.300;2022-12-26T21:49:35;16.83;;;11.80;;
57111;SDS011;42992;49.084;19.300;2022-12-26T21:55:04;19.45;;;12.68;;
57111;SDS011;42992;49.084;19.300;2022-12-26T22:42:20;21.48;;;14.25;;
57111;SDS011;42992;49.084;19.300;2022-12-26T22:45:13;25.58;;;15.57;;
57111;SDS011;42992;49.084;19.300;2022-12-26T22:47:42;21.83;;;14.98;;
57111;SDS011;42992;49.084;19.300;2022-12-26T23:38:25;16.60;;;10.80;;
